CheckWX is a tool to help pilots better visualize weather data.  It is not intended as a substitute for an official pre-flight weather briefing.

08:44:42 UTC

KPHT METAR
Henry County Airport
Paris, Tennessee, USA
Current

30 mins ago

KPHT 180815Z AUTO 00000KT 10SM CLR 04/04 A3002 RMK A01
Observed
Oct-18 @ 08:15 UTC
Visibility
10 SM
Flight Rules
VFR
Cloud Levels
  • Clear skies
Temperature
C / 39°F
Dewpoint
C / 39°F
Humidity
100%
Altimeter
30.02" Hg
Pressure
1016.62 hPa
Previous

50 mins ago

KPHT 180755Z AUTO 00000KT 10SM CLR 05/04 A3002 RMK A01
Observed
Oct-18 @ 07:55 UTC
Visibility
10 SM
Flight Rules
VFR
Cloud Levels
  • Clear skies
Temperature
C / 41°F
Dewpoint
C / 39°F
Humidity
93%
Altimeter
30.02" Hg
Pressure
1016.62 hPa
Previous

1 hour ago

KPHT 180735Z AUTO 00000KT 10SM CLR 04/04 A3002 RMK A01
Observed
Oct-18 @ 07:35 UTC
Visibility
10 SM
Flight Rules
VFR
Cloud Levels
  • Clear skies
Temperature
C / 39°F
Dewpoint
C / 39°F
Humidity
100%
Altimeter
30.02" Hg
Pressure
1016.62 hPa